Carnival Valor — H3VR — position and weather

sailwx.info

Track history (hours):
 
Tides and Currents Weather Stations Pressure Air Temp Water Temp Dewpoint Dewpoint Depression Visibility Wind Speed Wind Dir Waves Ship Positions

Carnival Valor

Last reported at 2018-Aug-15 04:00 UTC. Time now 2018-Aug-15 12:39 UTC.
Position N 22°22' W 090°21'.

Type: Ship. MMSI: 354298000.

Date/timePositionNaut miles runAvg speedWind from/ knotsBaromVisibWave heightAir tempDewpointWater temp
2018-Aug-15 04:00N 22°22' W 090°21'1016.6
2018-Aug-15 03:23N 22°13' W 090°15'615.0
2018-Aug-15 03:00N 22°09' W 090°11'816.2
2018-Aug-15 02:30N 22°02' W 090°06'915.9
2018-Aug-15 01:58N 21°55' W 090°01'715.7
2018-Aug-15 01:30N 21°49' W 089°57'815.7
2018-Aug-15 00:59N 21°42' W 089°52'715.2
2018-Aug-15 00:30N 21°36' W 089°48'815.3
2018-Aug-15 00:01N 21°29' W 089°44'713.4
2018-Aug-14 23:30N 21°23' W 089°41'2 5.0
2018-Aug-14 23:00N 21°21' W 089°41'0 0.0
2018-Aug-14 22:27N 21°21' W 089°41'0 0.0
2018-Aug-14 21:57N 21°21' W 089°41'0 0.0
2018-Aug-14 21:29N 21°21' W 089°41'0 0.0
2018-Aug-14 21:00N 21°21' W 089°41'0 0.0
2018-Aug-14 20:26N 21°21' W 089°41'0 0.0
2018-Aug-14 19:52N 21°21' W 089°41'0 0.0
2018-Aug-14 19:28N 21°21' W 089°41'0 0.0
2018-Aug-14 18:58N 21°21' W 089°41'0 0.0
2018-Aug-14 18:30N 21°21' W 089°41'0 0.0
2018-Aug-14 18:00N 21°21' W 089°41'0 0.0
2018-Aug-14 17:30N 21°21' W 089°41'0 0.0
2018-Aug-14 16:59N 21°21' W 089°41'0 0.0
2018-Aug-14 16:29N 21°21' W 089°41'0 0.0
2018-Aug-14 15:58N 21°21' W 089°41'0 0.0
2018-Aug-14 15:29N 21°21' W 089°41'0 0.0
2018-Aug-14 14:58N 21°21' W 089°41'0 0.2
2018-Aug-14 14:29N 21°20' W 089°41'4 7.8
2018-Aug-14 14:00N 21°24' W 089°41'511.2
2018-Aug-14 13:30N 21°29' W 089°39'816.5
2018-Aug-14 13:00N 21°36' W 089°34'816.3
2018-Aug-14 12:30N 21°42' W 089°28'817.0
2018-Aug-14 12:00N 21°44' W 089°19'917.0
2018-Aug-14 11:30N 21°46' W 089°10'917.3
2018-Aug-14 11:00N 21°49' W 089°01'917.9
2018-Aug-14 10:30N 21°51' W 088°52'1117.6
2018-Aug-14 09:51N 21°54' W 088°40'717.4
2018-Aug-14 09:29N 21°55' W 088°33'917.5
2018-Aug-14 08:56N 21°58' W 088°24'11512.5
2018-Aug-13 23:46N 20°36' W 086°57'417.4
2018-Aug-13 23:30N 20°33' W 086°60'4 7.7
2018-Aug-13 22:59N 20°29' W 086°59'0 0.0
2018-Aug-13 22:28N 20°29' W 086°59'0 0.0
2018-Aug-13 21:58N 20°29' W 086°59'0 0.0
2018-Aug-13 21:28N 20°29' W 086°59'0 0.0
2018-Aug-13 20:58N 20°29' W 086°59'0 0.0
2018-Aug-13 20:28N 20°29' W 086°59'0 0.0
2018-Aug-13 19:57N 20°29' W 086°59'0 0.0
2018-Aug-13 19:24N 20°29' W 086°59'0 0.0
2018-Aug-13 19:00N 20°29' W 086°59'0 0.0
2018-Aug-13 18:27N 20°29' W 086°59'0 0.0
2018-Aug-13 18:00N 20°29' W 086°59'0 0.0
2018-Aug-13 17:26N 20°29' W 086°59'0 0.0
2018-Aug-13 16:59N 20°29' W 086°59'0 0.0
2018-Aug-13 16:29N 20°29' W 086°59'0 0.0
2018-Aug-13 15:59N 20°29' W 086°59'0 0.0
2018-Aug-13 15:29N 20°29' W 086°59'0 0.0
2018-Aug-13 14:58N 20°29' W 086°59'0 0.0
2018-Aug-13 14:30N 20°29' W 086°59'0 0.0
2018-Aug-13 14:00N 20°29' W 086°59'0 0.1
2018-Aug-13 13:31N 20°29' W 086°59'3 6.8
2018-Aug-13 13:00N 20°32' W 086°59'611.7
2018-Aug-13 12:30N 20°37' W 086°55'66517.5
2018-Aug-11 22:28N 29°15' W 094°35'612.1
2018-Aug-11 21:59N 29°19' W 094°39'613.4
2018-Aug-11 21:31N 29°20' W 094°46'2 4.7
2018-Aug-11 21:00N 29°19' W 094°48'0 0.0
2018-Aug-11 20:27N 29°19' W 094°48'0 0.0
2018-Aug-11 19:47N 29°19' W 094°48'0 0.0
2018-Aug-11 19:29N 29°19' W 094°48'0 0.0
2018-Aug-11 18:47N 29°19' W 094°48'0 0.0
2018-Aug-11 18:26N 29°19' W 094°48'0 0.0
2018-Aug-11 17:55N 29°19' W 094°48'0 0.0
2018-Aug-11 17:28N 29°19' W 094°48'0 0.0
2018-Aug-11 16:58N 29°19' W 094°48'0 0.0
2018-Aug-11 16:28N 29°19' W 094°48'0 0.0
2018-Aug-11 15:58N 29°19' W 094°48'0 0.0
2018-Aug-11 15:30N 29°19' W 094°48'0 0.0
2018-Aug-11 14:13N 29°19' W 094°48'0 0.0
2018-Aug-11 14:00N 29°19' W 094°48'0 0.0
2018-Aug-11 13:21N 29°19' W 094°48'0 0.0
2018-Aug-11 13:00N 29°19' W 094°48'1 1.9
2018-Aug-11 12:30N 29°19' W 094°47'1 1.7
2018-Aug-11 12:00N 29°20' W 094°47'612.3
2018-Aug-11 11:30N 29°19' W 094°40'612.3
2018-Aug-11 11:00N 29°16' W 094°34'815.4
2018-Aug-11 10:28N 29°11' W 094°26'1015.1
2018-Aug-11 09:47N 29°01' W 094°25'716.2
2018-Aug-11 09:21N 28°54' W 094°25'49915.3
2018-Aug-10 00:41N 21°41' W 089°51'315.7
2018-Aug-10 00:30N 21°38' W 089°49'815.6
2018-Aug-10 00:00N 21°32' W 089°44'714.3
2018-Aug-09 23:30N 21°25' W 089°41'5 9.5
2018-Aug-09 23:00N 21°21' W 089°41'0 0.0
2018-Aug-09 22:30N 21°21' W 089°41'0 0.0
2018-Aug-09 22:00N 21°21' W 089°41'0 0.0
2018-Aug-09 21:30N 21°21' W 089°41'0 0.0
2018-Aug-09 21:00N 21°21' W 089°41'0 0.0
2018-Aug-09 20:29N 21°21' W 089°41'0 0.0
2018-Aug-09 19:59N 21°21' W 089°41'0 0.0
2018-Aug-09 17:58N 21°21' W 089°41'0 0.0
2018-Aug-09 17:28N 21°21' W 089°41'0 0.0
2018-Aug-09 16:58N 21°21' W 089°41'0 0.0
2018-Aug-09 16:28N 21°21' W 089°41'0 0.0
2018-Aug-09 15:57N 21°21' W 089°41'0 0.0
2018-Aug-09 15:30N 21°21' W 089°41'0 0.0
2018-Aug-09 15:00N 21°21' W 089°41'0 0.3
2018-Aug-09 14:30N 21°21' W 089°41'2 4.9
2018-Aug-09 14:00N 21°23' W 089°41'612.0
2018-Aug-09 13:30N 21°29' W 089°39'816.9
2018-Aug-09 13:00N 21°36' W 089°34'916.8
2018-Aug-09 12:30N 21°42' W 089°29'917.2
2018-Aug-09 12:00N 21°44' W 089°20'1017.4
2018-Aug-09 11:26N 21°47' W 089°10'2217.5
2018-Aug-09 10:11N 21°52' W 088°47'12712.1
2018-Aug-08 23:42N 20°36' W 086°57'317.2
2018-Aug-08 23:30N 20°33' W 086°59'4 7.7
2018-Aug-08 23:00N 20°29' W 086°59'0 0.0
2018-Aug-08 22:29N 20°29' W 086°59'0 0.0
2018-Aug-08 21:59N 20°29' W 086°59'0 0.0
2018-Aug-08 21:29N 20°29' W 086°59'0 0.0
2018-Aug-08 20:59N 20°29' W 086°59'0 0.0
2018-Aug-08 20:29N 20°29' W 086°59'0 0.0
2018-Aug-08 19:58N 20°29' W 086°59'0 0.0
2018-Aug-08 19:28N 20°29' W 086°59'0 0.0
2018-Aug-08 18:58N 20°29' W 086°59'0 0.0
2018-Aug-08 18:25N 20°29' W 086°59'0 0.0
2018-Aug-08 18:01N 20°29' W 086°59'0 0.0
2018-Aug-08 17:30N 20°29' W 086°59'0 0.0
2018-Aug-08 17:00N 20°29' W 086°59'0 0.0
2018-Aug-08 16:30N 20°29' W 086°59'0 0.0
2018-Aug-08 16:00N 20°29' W 086°59'0 0.0
2018-Aug-08 15:29N 20°29' W 086°59'0 0.0
2018-Aug-08 14:56N 20°29' W 086°59'0 0.0
2018-Aug-08 14:29N 20°29' W 086°59'0 0.0
2018-Aug-08 13:59N 20°29' W 086°59'0 0.2
2018-Aug-08 13:30N 20°29' W 086°59'4 7.9
2018-Aug-08 13:00N 20°33' W 086°58'612.9
2018-Aug-08 12:30N 20°38' W 086°54'66417.5
2018-Aug-06 22:34N 29°15' W 094°34'214.3
2018-Aug-06 22:24N 29°16' W 094°36'410.9
2018-Aug-06 22:01N 29°19' W 094°39'713.0
2018-Aug-06 21:30N 29°20' W 094°47'2 2.8
2018-Aug-06 20:55N 29°19' W 094°48'0 0.0
2018-Aug-06 20:30N 29°19' W 094°48'0 0.0
2018-Aug-06 20:00N 29°19' W 094°48'0 0.0
2018-Aug-06 19:30N 29°19' W 094°48'0 0.0
2018-Aug-06 19:00N 29°19' W 094°48'0 0.0
2018-Aug-06 18:29N 29°19' W 094°48'0 0.0
2018-Aug-06 17:59N 29°19' W 094°48'0 0.0
2018-Aug-06 17:29N 29°19' W 094°48'0 0.0
2018-Aug-06 16:59N 29°19' W 094°48'0 0.0
2018-Aug-06 16:29N 29°19' W 094°48'0 0.0
2018-Aug-06 15:58N 29°19' W 094°48'0 0.0
2018-Aug-06 15:28N 29°19' W 094°48'0 0.0
2018-Aug-06 14:58N 29°19' W 094°48'0 0.0
2018-Aug-06 14:28N 29°19' W 094°48'0 0.0
2018-Aug-06 13:58N 29°19' W 094°48'0 0.0
2018-Aug-06 13:30N 29°19' W 094°48'0 0.0
2018-Aug-06 13:00N 29°19' W 094°48'0 0.1
2018-Aug-06 12:30N 29°19' W 094°48'3 5.3
2018-Aug-06 12:00N 29°21' W 094°46'713.7
2018-Aug-06 11:30N 29°19' W 094°38'713.3
2018-Aug-06 11:00N 29°15' W 094°32'  
Track history (hours):
 
Tides and Currents Weather Stations Pressure Air Temp Water Temp Dewpoint Dewpoint Depression Visibility Wind Speed Wind Dir Waves Ship Positions

Carnival Valor

Last reported at 2018-Aug-15 04:00 UTC. Time now 2018-Aug-15 12:39 UTC.
Position N 22°22' W 090°21'.

Type: Ship. MMSI: 354298000.

Date/timePositionNaut miles runAvg speedWind from/ knotsBaromVisibWave heightAir tempDewpointWater temp
2018-Aug-15 04:00N 22°22' W 090°21'1016.6
2018-Aug-15 03:23N 22°13' W 090°15'615.0
2018-Aug-15 03:00N 22°09' W 090°11'816.2
2018-Aug-15 02:30N 22°02' W 090°06'915.9
2018-Aug-15 01:58N 21°55' W 090°01'715.7
2018-Aug-15 01:30N 21°49' W 089°57'815.7
2018-Aug-15 00:59N 21°42' W 089°52'715.2
2018-Aug-15 00:30N 21°36' W 089°48'815.3
2018-Aug-15 00:01N 21°29' W 089°44'713.4
2018-Aug-14 23:30N 21°23' W 089°41'2 5.0
2018-Aug-14 23:00N 21°21' W 089°41'0 0.0
2018-Aug-14 22:27N 21°21' W 089°41'0 0.0
2018-Aug-14 21:57N 21°21' W 089°41'0 0.0
2018-Aug-14 21:29N 21°21' W 089°41'0 0.0
2018-Aug-14 21:00N 21°21' W 089°41'0 0.0
2018-Aug-14 20:26N 21°21' W 089°41'0 0.0
2018-Aug-14 19:52N 21°21' W 089°41'0 0.0
2018-Aug-14 19:28N 21°21' W 089°41'0 0.0
2018-Aug-14 18:58N 21°21' W 089°41'0 0.0
2018-Aug-14 18:30N 21°21' W 089°41'0 0.0
2018-Aug-14 18:00N 21°21' W 089°41'0 0.0
2018-Aug-14 17:30N 21°21' W 089°41'0 0.0
2018-Aug-14 16:59N 21°21' W 089°41'0 0.0
2018-Aug-14 16:29N 21°21' W 089°41'0 0.0
2018-Aug-14 15:58N 21°21' W 089°41'0 0.0
2018-Aug-14 15:29N 21°21' W 089°41'0 0.0
2018-Aug-14 14:58N 21°21' W 089°41'0 0.2
2018-Aug-14 14:29N 21°20' W 089°41'4 7.8
2018-Aug-14 14:00N 21°24' W 089°41'511.2
2018-Aug-14 13:30N 21°29' W 089°39'816.5
2018-Aug-14 13:00N 21°36' W 089°34'816.3
2018-Aug-14 12:30N 21°42' W 089°28'817.0
2018-Aug-14 12:00N 21°44' W 089°19'917.0
2018-Aug-14 11:30N 21°46' W 089°10'917.3
2018-Aug-14 11:00N 21°49' W 089°01'917.9
2018-Aug-14 10:30N 21°51' W 088°52'1117.6
2018-Aug-14 09:51N 21°54' W 088°40'717.4
2018-Aug-14 09:29N 21°55' W 088°33'917.5
2018-Aug-14 08:56N 21°58' W 088°24'11512.5
2018-Aug-13 23:46N 20°36' W 086°57'417.4
2018-Aug-13 23:30N 20°33' W 086°60'4 7.7
2018-Aug-13 22:59N 20°29' W 086°59'0 0.0
2018-Aug-13 22:28N 20°29' W 086°59'0 0.0
2018-Aug-13 21:58N 20°29' W 086°59'0 0.0
2018-Aug-13 21:28N 20°29' W 086°59'0 0.0
2018-Aug-13 20:58N 20°29' W 086°59'0 0.0
2018-Aug-13 20:28N 20°29' W 086°59'0 0.0
2018-Aug-13 19:57N 20°29' W 086°59'0 0.0
2018-Aug-13 19:24N 20°29' W 086°59'0 0.0
2018-Aug-13 19:00N 20°29' W 086°59'0 0.0
2018-Aug-13 18:27N 20°29' W 086°59'0 0.0
2018-Aug-13 18:00N 20°29' W 086°59'0 0.0
2018-Aug-13 17:26N 20°29' W 086°59'0 0.0
2018-Aug-13 16:59N 20°29' W 086°59'0 0.0
2018-Aug-13 16:29N 20°29' W 086°59'0 0.0
2018-Aug-13 15:59N 20°29' W 086°59'0 0.0
2018-Aug-13 15:29N 20°29' W 086°59'0 0.0
2018-Aug-13 14:58N 20°29' W 086°59'0 0.0
2018-Aug-13 14:30N 20°29' W 086°59'0 0.0
2018-Aug-13 14:00N 20°29' W 086°59'0 0.1
2018-Aug-13 13:31N 20°29' W 086°59'3 6.8
2018-Aug-13 13:00N 20°32' W 086°59'611.7
2018-Aug-13 12:30N 20°37' W 086°55'66517.5
2018-Aug-11 22:28N 29°15' W 094°35'612.1
2018-Aug-11 21:59N 29°19' W 094°39'613.4
2018-Aug-11 21:31N 29°20' W 094°46'2 4.7
2018-Aug-11 21:00N 29°19' W 094°48'0 0.0
2018-Aug-11 20:27N 29°19' W 094°48'0 0.0
2018-Aug-11 19:47N 29°19' W 094°48'0 0.0
2018-Aug-11 19:29N 29°19' W 094°48'0 0.0
2018-Aug-11 18:47N 29°19' W 094°48'0 0.0
2018-Aug-11 18:26N 29°19' W 094°48'0 0.0
2018-Aug-11 17:55N 29°19' W 094°48'0 0.0
2018-Aug-11 17:28N 29°19' W 094°48'0 0.0
2018-Aug-11 16:58N 29°19' W 094°48'0 0.0
2018-Aug-11 16:28N 29°19' W 094°48'0 0.0
2018-Aug-11 15:58N 29°19' W 094°48'0 0.0
2018-Aug-11 15:30N 29°19' W 094°48'0 0.0
2018-Aug-11 14:13N 29°19' W 094°48'0 0.0
2018-Aug-11 14:00N 29°19' W 094°48'0 0.0
2018-Aug-11 13:21N 29°19' W 094°48'0 0.0
2018-Aug-11 13:00N 29°19' W 094°48'1 1.9
2018-Aug-11 12:30N 29°19' W 094°47'1 1.7
2018-Aug-11 12:00N 29°20' W 094°47'612.3
2018-Aug-11 11:30N 29°19' W 094°40'612.3
2018-Aug-11 11:00N 29°16' W 094°34'815.4
2018-Aug-11 10:28N 29°11' W 094°26'1015.1
2018-Aug-11 09:47N 29°01' W 094°25'716.2
2018-Aug-11 09:21N 28°54' W 094°25'49915.3
2018-Aug-10 00:41N 21°41' W 089°51'315.7
2018-Aug-10 00:30N 21°38' W 089°49'815.6
2018-Aug-10 00:00N 21°32' W 089°44'714.3
2018-Aug-09 23:30N 21°25' W 089°41'5 9.5
2018-Aug-09 23:00N 21°21' W 089°41'0 0.0
2018-Aug-09 22:30N 21°21' W 089°41'0 0.0
2018-Aug-09 22:00N 21°21' W 089°41'0 0.0
2018-Aug-09 21:30N 21°21' W 089°41'0 0.0
2018-Aug-09 21:00N 21°21' W 089°41'0 0.0
2018-Aug-09 20:29N 21°21' W 089°41'0 0.0
2018-Aug-09 19:59N 21°21' W 089°41'0 0.0
2018-Aug-09 17:58N 21°21' W 089°41'0 0.0
2018-Aug-09 17:28N 21°21' W 089°41'0 0.0
2018-Aug-09 16:58N 21°21' W 089°41'0 0.0
2018-Aug-09 16:28N 21°21' W 089°41'0 0.0
2018-Aug-09 15:57N 21°21' W 089°41'0 0.0
2018-Aug-09 15:30N 21°21' W 089°41'0 0.0
2018-Aug-09 15:00N 21°21' W 089°41'0 0.3
2018-Aug-09 14:30N 21°21' W 089°41'2 4.9
2018-Aug-09 14:00N 21°23' W 089°41'612.0
2018-Aug-09 13:30N 21°29' W 089°39'816.9
2018-Aug-09 13:00N 21°36' W 089°34'916.8
2018-Aug-09 12:30N 21°42' W 089°29'917.2
2018-Aug-09 12:00N 21°44' W 089°20'1017.4
2018-Aug-09 11:26N 21°47' W 089°10'2217.5
2018-Aug-09 10:11N 21°52' W 088°47'12712.1
2018-Aug-08 23:42N 20°36' W 086°57'317.2
2018-Aug-08 23:30N 20°33' W 086°59'4 7.7
2018-Aug-08 23:00N 20°29' W 086°59'0 0.0
2018-Aug-08 22:29N 20°29' W 086°59'0 0.0
2018-Aug-08 21:59N 20°29' W 086°59'0 0.0
2018-Aug-08 21:29N 20°29' W 086°59'0 0.0
2018-Aug-08 20:59N 20°29' W 086°59'0 0.0
2018-Aug-08 20:29N 20°29' W 086°59'0 0.0
2018-Aug-08 19:58N 20°29' W 086°59'0 0.0
2018-Aug-08 19:28N 20°29' W 086°59'0 0.0
2018-Aug-08 18:58N 20°29' W 086°59'0 0.0
2018-Aug-08 18:25N 20°29' W 086°59'0 0.0
2018-Aug-08 18:01N 20°29' W 086°59'0 0.0
2018-Aug-08 17:30N 20°29' W 086°59'0 0.0
2018-Aug-08 17:00N 20°29' W 086°59'0 0.0
2018-Aug-08 16:30N 20°29' W 086°59'0 0.0
2018-Aug-08 16:00N 20°29' W 086°59'0 0.0
2018-Aug-08 15:29N 20°29' W 086°59'0 0.0
2018-Aug-08 14:56N 20°29' W 086°59'0 0.0
2018-Aug-08 14:29N 20°29' W 086°59'0 0.0
2018-Aug-08 13:59N 20°29' W 086°59'0 0.2
2018-Aug-08 13:30N 20°29' W 086°59'4 7.9
2018-Aug-08 13:00N 20°33' W 086°58'612.9
2018-Aug-08 12:30N 20°38' W 086°54'66417.5
2018-Aug-06 22:34N 29°15' W 094°34'214.3
2018-Aug-06 22:24N 29°16' W 094°36'410.9
2018-Aug-06 22:01N 29°19' W 094°39'713.0
2018-Aug-06 21:30N 29°20' W 094°47'2 2.8
2018-Aug-06 20:55N 29°19' W 094°48'0 0.0
2018-Aug-06 20:30N 29°19' W 094°48'0 0.0
2018-Aug-06 20:00N 29°19' W 094°48'0 0.0
2018-Aug-06 19:30N 29°19' W 094°48'0 0.0
2018-Aug-06 19:00N 29°19' W 094°48'0 0.0
2018-Aug-06 18:29N 29°19' W 094°48'0 0.0
2018-Aug-06 17:59N 29°19' W 094°48'0 0.0
2018-Aug-06 17:29N 29°19' W 094°48'0 0.0
2018-Aug-06 16:59N 29°19' W 094°48'0 0.0
2018-Aug-06 16:29N 29°19' W 094°48'0 0.0
2018-Aug-06 15:58N 29°19' W 094°48'0 0.0
2018-Aug-06 15:28N 29°19' W 094°48'0 0.0
2018-Aug-06 14:58N 29°19' W 094°48'0 0.0
2018-Aug-06 14:28N 29°19' W 094°48'0 0.0
2018-Aug-06 13:58N 29°19' W 094°48'0 0.0
2018-Aug-06 13:30N 29°19' W 094°48'0 0.0
2018-Aug-06 13:00N 29°19' W 094°48'0 0.1
2018-Aug-06 12:30N 29°19' W 094°48'3 5.3
2018-Aug-06 12:00N 29°21' W 094°46'713.7
2018-Aug-06 11:30N 29°19' W 094°38'713.3
2018-Aug-06 11:00N 29°15' W 094°32'  

Dump ship's entire track history